Time;durP1;ratioP1;P1;durP2;ratioP2;P2;SDS_P1;SDS_P2;PMS_P1;PMS_P2;Temp;Humidity;BMP_temperature;BMP_pressure;BME280_temperature;BME280_humidity;BME280_pressure;Samples;Min_cycle;Max_cycle;Signal;HPM_P1;HPM_P2
2023/03/13 00:01:42;;;;;;;9.83;2.83;;;;;;;8.58;78.51;98251.66;4992699;28;102677;-58
2023/03/13 00:04:10;;;;;;;9.67;2.80;;;;;;;8.58;78.47;98251.66;4987349;28;104144;-57
2023/03/13 00:06:39;;;;;;;6.37;3.17;;;;;;;8.64;78.06;98251.25;4989674;28;104374;-58
2023/03/13 00:09:11;;;;;;;7.17;2.50;;;;;;;8.63;78.01;98249.53;4988617;28;103221;-57
2023/03/13 00:11:38;;;;;;;6.07;2.20;;;;;;;8.70;77.85;98242.88;4991741;28;102775;-58
2023/03/13 00:14:07;;;;;;;6.00;2.80;;;;;;;8.76;77.69;98251.31;4984776;28;102802;-57
2023/03/13 00:16:38;;;;;;;10.17;3.20;;;;;;;8.71;78.17;98241.94;4983961;28;103227;-57
2023/03/13 00:19:07;;;;;;;3.80;2.03;;;;;;;8.65;78.41;98236.25;4989809;28;103361;-58
2023/03/13 00:21:37;;;;;;;7.93;3.33;;;;;;;8.64;78.35;98239.84;4987255;28;102975;-57
2023/03/13 00:24:05;;;;;;;7.77;3.00;;;;;;;8.62;78.57;98232.06;4989209;28;104026;-58
2023/03/13 00:26:33;;;;;;;5.43;2.53;;;;;;;8.48;79.46;98232.19;4982774;28;103986;-58
2023/03/13 00:29:01;;;;;;;5.97;2.83;;;;;;;8.67;78.98;98235.19;4978602;28;103254;-57
2023/03/13 00:31:30;;;;;;;5.93;2.63;;;;;;;8.76;78.18;98223.16;4982295;28;102979;-57
2023/03/13 00:34:01;;;;;;;6.10;2.60;;;;;;;8.78;77.81;98230.97;4984581;28;104149;-58
2023/03/13 00:36:32;;;;;;;7.70;2.77;;;;;;;8.84;77.98;98217.34;5013033;28;103279;-58
2023/03/13 00:39:03;;;;;;;5.47;2.93;;;;;;;8.84;78.10;98214.72;4991628;28;105158;-59
2023/03/13 00:41:36;;;;;;;9.87;3.20;;;;;;;8.85;77.90;98221.66;4993469;28;102671;-58
2023/03/13 00:44:05;;;;;;;5.50;2.40;;;;;;;8.81;78.40;98214.94;4994583;28;103407;-58
2023/03/13 00:46:32;;;;;;;8.57;2.90;;;;;;;8.78;78.16;98209.91;4989829;28;104141;-58
2023/03/13 00:49:03;;;;;;;5.87;2.43;;;;;;;8.78;78.65;98209.91;4994263;28;103445;-58
2023/03/13 00:51:33;;;;;;;6.17;2.97;;;;;;;8.73;78.80;98203.16;4991835;28;102704;-58
2023/03/13 00:54:02;;;;;;;7.70;2.57;;;;;;;8.55;79.44;98208.91;4990464;28;104426;-58
2023/03/13 00:56:30;;;;;;;5.77;2.70;;;;;;;8.67;79.43;98214.13;4992486;28;104180;-58
2023/03/13 00:59:00;;;;;;;6.53;2.70;;;;;;;8.70;79.35;98203.38;4995444;28;103208;-58
2023/03/13 01:01:30;;;;;;;9.20;3.03;;;;;;;8.66;79.26;98191.41;4998626;28;103072;-59
2023/03/13 01:04:00;;;;;;;5.67;3.17;;;;;;;8.73;79.10;98189.97;4994479;28;103715;-58
2023/03/13 01:06:34;;;;;;;6.57;2.63;;;;;;;8.69;79.67;98191.19;4992918;28;103300;-58
2023/03/13 01:09:02;;;;;;;8.13;2.63;;;;;;;8.80;79.07;98182.50;4996245;28;103253;-58
2023/03/13 01:11:32;;;;;;;9.07;2.57;;;;;;;8.81;78.86;98176.28;4995899;28;102741;-58
2023/03/13 01:14:02;;;;;;;8.60;2.90;;;;;;;8.81;79.04;98172.78;4994355;28;102725;-58
2023/03/13 01:16:31;;;;;;;7.40;3.13;;;;;;;8.77;79.59;98171.31;4993204;28;103523;-58
2023/03/13 01:19:01;;;;;;;4.03;2.30;;;;;;;9.04;78.29;98164.03;4994107;28;103279;-58
2023/03/13 01:21:31;;;;;;;4.87;2.30;;;;;;;9.06;78.25;98159.50;4989534;28;103095;-58
2023/03/13 01:23:58;;;;;;;8.97;2.53;;;;;;;9.09;77.85;98146.94;4993185;28;102692;-58
2023/03/13 01:26:27;;;;;;;10.57;2.90;;;;;;;9.25;77.72;98151.88;4996677;28;103862;-58
2023/03/13 01:28:55;;;;;;;5.10;2.13;;;;;;;9.71;75.65;98144.75;4992925;28;103227;-58
2023/03/13 01:31:26;;;;;;;7.57;2.20;;;;;;;9.82;74.78;98139.50;4993753;28;102838;-57
2023/03/13 01:33:56;;;;;;;5.43;2.33;;;;;;;9.24;77.23;98137.00;4993305;28;103911;-57
2023/03/13 01:36:26;;;;;;;6.57;2.70;;;;;;;9.10;78.08;98137.22;4995961;28;103464;-58
2023/03/13 01:38:58;;;;;;;5.67;2.70;;;;;;;8.92;78.64;98128.06;4990645;28;103395;-57
2023/03/13 01:41:27;;;;;;;6.17;2.40;;;;;;;9.01;78.60;98125.56;4992102;28;103384;-57
2023/03/13 01:43:56;;;;;;;7.97;3.07;;;;;;;8.99;78.68;98119.56;4995649;28;102683;-57
2023/03/13 01:46:29;;;;;;;7.70;2.73;;;;;;;8.98;78.91;98119.72;4991936;28;105899;-58
2023/03/13 01:49:15;;;;;;;7.60;3.50;;;;;;;8.74;80.17;98115.31;4992318;28;105400;-57
2023/03/13 01:52:01;;;;;;;8.33;3.47;;;;;;;8.70;80.40;98108.56;4995157;28;102615;-57
2023/03/13 01:54:36;;;;;;;7.90;2.83;;;;;;;8.81;80.41;98104.31;4991114;28;103529;-57
2023/03/13 01:57:08;;;;;;;6.23;2.40;;;;;;;8.84;79.78;98099.66;4982196;28;104071;-58
2023/03/13 01:59:42;;;;;;;5.50;2.70;;;;;;;8.91;79.66;98092.13;4994898;28;105071;-57
2023/03/13 02:02:11;;;;;;;4.77;2.10;;;;;;;8.94;79.69;98092.75;4992217;28;102634;-57
2023/03/13 02:04:45;;;;;;;3.90;2.30;;;;;;;8.94;79.60;98089.25;4993575;28;102665;-58
2023/03/13 02:07:17;;;;;;;7.70;2.93;;;;;;;8.88;80.11;98069.50;5010870;28;104316;-58
2023/03/13 02:09:50;;;;;;;8.10;2.60;;;;;;;9.03;78.84;98075.41;4991967;28;103204;-58
2023/03/13 02:12:24;;;;;;;4.00;2.33;;;;;;;9.09;78.91;98067.03;4994446;28;102717;-57
2023/03/13 02:14:58;;;;;;;6.13;2.13;;;;;;;9.10;78.75;98063.44;4993545;28;102844;-57
2023/03/13 02:17:26;;;;;;;4.47;2.10;;;;;;;9.19;78.03;98057.47;4990870;28;103212;-57
2023/03/13 02:19:54;;;;;;;7.87;2.23;;;;;;;9.15;77.95;98058.66;4993273;28;103092;-58
2023/03/13 02:22:29;;;;;;;8.20;2.60;;;;;;;9.18;77.75;98061.03;4994561;28;103699;-57
2023/03/13 02:25:06;;;;;;;4.70;2.20;;;;;;;9.29;77.58;98069.00;4991815;28;102711;-58
2023/03/13 02:27:36;;;;;;;6.53;2.17;;;;;;;9.30;77.37;98057.47;4994493;28;104001;-58
2023/03/13 02:30:06;;;;;;;4.13;1.90;;;;;;;9.33;76.97;98051.97;4987571;28;103273;-57
2023/03/13 02:32:34;;;;;;;6.67;2.53;;;;;;;9.32;76.81;98058.19;4992242;28;104124;-58
2023/03/13 02:35:07;;;;;;;10.53;2.43;;;;;;;9.34;76.80;98053.66;4991239;28;102751;-58
2023/03/13 02:37:36;;;;;;;6.00;2.27;;;;;;;9.35;77.00;98046.59;4992422;28;103233;-58
2023/03/13 02:40:11;;;;;;;4.63;2.40;;;;;;;9.39;77.05;98035.69;4992790;28;103759;-59
2023/03/13 02:42:43;;;;;;;5.33;2.30;;;;;;;9.37;77.50;98034.13;4994938;28;104871;-57
2023/03/13 02:45:14;;;;;;;5.73;2.10;;;;;;;9.39;76.78;98030.41;4992644;28;102771;-58
2023/03/13 02:47:43;;;;;;;7.10;2.30;;;;;;;9.51;75.96;98015.44;5006228;28;105185;-57
2023/03/13 02:50:14;;;;;;;5.43;2.40;;;;;;;9.52;76.15;98010.03;4993998;28;104152;-57
2023/03/13 02:52:45;;;;;;;10.67;2.60;;;;;;;9.57;76.23;98004.41;4993195;28;102603;-58
2023/03/13 02:55:16;;;;;;;6.30;2.30;;;;;;;9.61;75.98;97998.75;4994474;28;103362;-57
2023/03/13 02:57:46;;;;;;;5.37;2.70;;;;;;;9.69;75.54;97993.72;4991486;28;103375;-57
2023/03/13 03:00:16;;;;;;;6.23;2.03;;;;;;;9.72;75.40;97993.47;4989118;28;103917;-57
2023/03/13 03:02:45;;;;;;;6.60;1.70;;;;;;;9.74;75.37;97986.25;4987205;28;102749;-58
2023/03/13 03:05:14;;;;;;;6.20;1.60;;;;;;;9.77;75.57;97979.91;4993203;28;103635;-58
2023/03/13 03:07:42;;;;;;;5.77;1.93;;;;;;;9.74;75.74;97969.63;4995618;28;103301;-58
2023/03/13 03:10:11;;;;;;;3.87;1.27;;;;;;;9.82;75.37;97975.94;4991836;28;103179;-57
2023/03/13 03:12:40;;;;;;;3.70;1.33;;;;;;;9.91;75.36;97977.84;4991658;28;102641;-58
2023/03/13 03:15:11;;;;;;;7.20;1.53;;;;;;;10.03;75.08;97969.88;4995500;28;102610;-57
2023/03/13 03:17:43;;;;;;;5.87;1.67;;;;;;;9.95;76.25;97969.66;4993916;28;103265;-58
2023/03/13 03:20:12;;;;;;;6.97;1.67;;;;;;;10.00;76.99;97967.50;4995454;28;103188;-58
2023/03/13 03:22:42;;;;;;;6.27;1.70;;;;;;;10.02;77.45;97952.38;4992325;28;102706;-57
2023/03/13 03:25:10;;;;;;;4.43;1.57;;;;;;;9.99;78.79;97957.91;4994061;28;103951;-58
2023/03/13 03:27:38;;;;;;;5.30;1.30;;;;;;;10.06;78.46;97964.34;4996498;28;103303;-58
2023/03/13 03:30:11;;;;;;;5.60;1.37;;;;;;;10.05;78.53;97960.06;4995683;28;104006;-57
2023/03/13 03:32:39;;;;;;;3.30;1.40;;;;;;;10.06;78.53;97959.06;4995511;28;102729;-58
2023/03/13 03:35:08;;;;;;;5.03;1.40;;;;;;;10.01;79.56;97950.72;4994415;28;102698;-58
2023/03/13 03:37:36;;;;;;;5.33;1.20;;;;;;;10.02;79.36;97952.38;5010867;28;103237;-57
2023/03/13 03:40:06;;;;;;;3.10;1.53;;;;;;;10.13;79.40;97957.66;4992992;28;103257;-57
2023/03/13 03:42:35;;;;;;;3.50;1.30;;;;;;;10.16;79.39;97954.78;5010548;28;102684;-58
2023/03/13 03:45:04;;;;;;;4.33;1.60;;;;;;;10.19;79.29;97951.88;4990749;28;102825;-57
2023/03/13 03:47:33;;;;;;;2.97;1.20;;;;;;;10.23;78.94;97950.66;4993407;28;103473;-57
2023/03/13 03:50:02;;;;;;;3.80;1.10;;;;;;;10.28;78.63;97940.53;4999427;28;103219;-57
2023/03/13 03:52:35;;;;;;;3.23;1.30;;;;;;;10.35;78.39;97937.28;4991639;28;102811;-57
2023/03/13 03:55:03;;;;;;;3.40;1.23;;;;;;;10.39;78.54;97946.59;4995704;28;102936;-57
2023/03/13 03:57:31;;;;;;;4.70;1.10;;;;;;;10.36;79.01;97940.75;4995869;28;103234;-58
2023/03/13 04:00:00;;;;;;;5.40;1.20;;;;;;;10.38;79.00;97938.81;5010282;28;103115;-58
2023/03/13 04:02:28;;;;;;;4.07;1.20;;;;;;;10.41;79.19;97942.03;4998746;28;102864;-57
2023/03/13 04:04:58;;;;;;;3.30;1.30;;;;;;;10.42;78.89;97945.50;4996598;28;103414;-58
2023/03/13 04:07:32;;;;;;;7.50;1.37;;;;;;;10.37;79.54;97937.16;4995535;28;103202;-58
2023/03/13 04:10:00;;;;;;;4.43;1.33;;;;;;;10.45;79.11;97929.41;4995203;28;103401;-57
2023/03/13 04:12:35;;;;;;;4.43;1.20;;;;;;;10.41;79.59;97920.91;4991508;28;102673;-58
2023/03/13 04:15:04;;;;;;;4.70;1.30;;;;;;;10.44;79.54;97922.47;4993950;28;103209;-58
2023/03/13 04:17:32;;;;;;;2.70;1.20;;;;;;;10.43;80.06;97920.78;4993059;28;103478;-58
2023/03/13 04:20:06;;;;;;;2.67;1.17;;;;;;;10.54;80.09;97919.88;4996069;28;104228;-58
2023/03/13 04:22:34;;;;;;;3.27;1.23;;;;;;;10.56;80.47;97916.16;4996676;28;102563;-57
2023/03/13 04:25:02;;;;;;;2.70;0.80;;;;;;;10.58;80.95;97908.94;4996676;28;102847;-58
2023/03/13 04:27:33;;;;;;;1.50;0.90;;;;;;;10.68;81.31;97904.56;4994176;28;103253;-58
2023/03/13 04:30:03;;;;;;;2.27;0.60;;;;;;;10.84;81.89;97899.63;4993710;28;103225;-57
2023/03/13 04:32:50;;;;;;;3.30;0.90;;;;;;;10.91;82.74;97905.22;4989863;28;102696;-58
2023/03/13 04:35:39;;;;;;;1.20;0.80;;;;;;;11.00;84.17;97886.75;4994883;28;102709;-58
2023/03/13 04:38:24;;;;;;;1.07;0.80;;;;;;;11.19;84.15;97887.81;4986801;28;105410;-58
2023/03/13 04:40:57;;;;;;;0.83;0.70;;;;;;;11.28;83.82;97892.31;4997455;28;102971;-57
2023/03/13 04:44:00;;;;;;;2.60;0.80;;;;;;;11.50;83.50;97892.94;4942811;28;103150;-58
2023/03/13 04:46:45;;;;;;;1.77;0.60;;;;;;;11.70;82.94;97906.22;4987317;28;102696;-58
2023/03/13 04:49:14;;;;;;;1.80;0.77;;;;;;;11.70;83.19;97898.28;4993269;28;103717;-57
2023/03/13 04:52:02;;;;;;;2.43;0.67;;;;;;;11.74;83.14;97900.50;4997766;28;103320;-58
2023/03/13 04:54:49;;;;;;;2.10;0.83;;;;;;;11.84;82.77;97896.06;4994918;28;102812;-58
2023/03/13 04:57:37;;;;;;;1.77;0.80;;;;;;;11.90;82.81;97895.50;4986194;28;102840;-58
2023/03/13 05:00:23;;;;;;;1.07;0.73;;;;;;;11.87;82.87;97893.16;4992455;28;103142;-58
2023/03/13 05:03:27;;;;;;;2.10;0.83;;;;;;;11.98;82.64;97886.88;4985795;28;103046;-59
2023/03/13 05:06:08;;;;;;;0.73;0.60;;;;;;;12.02;82.45;97890.91;4992426;28;102767;-58
2023/03/13 05:09:07;;;;;;;1.27;0.80;;;;;;;11.96;82.84;97899.41;4922555;28;104118;-58
2023/03/13 05:11:51;;;;;;;0.83;0.50;;;;;;;12.08;81.98;97887.72;4992555;28;105115;-57
2023/03/13 05:14:29;;;;;;;1.30;0.67;;;;;;;12.07;82.02;97897.47;4995442;28;104017;-58
2023/03/13 05:17:28;;;;;;;0.97;0.57;;;;;;;11.97;81.94;97896.63;4996227;28;102620;-58
2023/03/13 05:20:13;;;;;;;2.53;0.70;;;;;;;12.03;82.14;97896.09;4997361;28;104142;-57
2023/03/13 05:22:48;;;;;;;1.27;0.70;;;;;;;12.04;82.03;97895.09;4993159;28;103404;-59
2023/03/13 05:25:17;;;;;;;1.17;0.60;;;;;;;11.98;82.52;97890.38;4990566;28;104570;-59
2023/03/13 05:28:04;;;;;;;1.80;0.50;;;;;;;12.01;82.10;97902.50;4986717;28;103490;-59
2023/03/13 05:30:53;;;;;;;1.43;0.63;;;;;;;12.14;81.65;97885.34;4994814;28;104037;-59
2023/03/13 05:33:44;;;;;;;1.93;0.50;;;;;;;12.10;82.17;97880.47;4972314;28;103217;-59
2023/03/13 05:36:31;;;;;;;1.30;0.80;;;;;;;12.18;81.40;97878.78;4996818;28;103158;-60
2023/03/13 05:39:15;;;;;;;1.00;0.50;;;;;;;12.16;81.66;97880.75;4991217;28;102693;-60
2023/03/13 05:41:57;;;;;;;1.43;0.73;;;;;;;12.23;81.13;97875.72;5008782;28;104097;-59
2023/03/13 05:44:43;;;;;;;1.00;0.60;;;;;;;12.18;81.43;97868.19;4995682;28;103852;-58
2023/03/13 05:47:17;;;;;;;1.20;0.60;;;;;;;12.30;81.31;97883.94;4994652;28;103222;-58
2023/03/13 05:50:11;;;;;;;0.63;0.60;;;;;;;12.18;81.45;97876.13;4991952;28;102830;-58
2023/03/13 05:52:58;;;;;;;1.73;0.60;;;;;;;12.20;81.54;97879.50;4990879;28;104170;-58
2023/03/13 05:55:49;;;;;;;0.87;0.60;;;;;;;12.33;81.05;97876.53;4994108;28;104639;-58
2023/03/13 05:58:41;;;;;;;1.00;0.80;;;;;;;12.25;81.44;97879.06;4991723;28;103346;-58
2023/03/13 06:01:27;;;;;;;3.37;0.70;;;;;;;12.35;80.93;97863.19;4990528;28;102798;-58
2023/03/13 06:04:06;;;;;;;0.93;0.60;;;;;;;12.37;81.01;97869.16;4991542;28;102670;-58
2023/03/13 06:06:36;;;;;;;0.80;0.57;;;;;;;12.40;80.94;97867.06;4994000;28;103994;-60
2023/03/13 06:09:05;;;;;;;0.50;0.50;;;;;;;12.49;80.67;97875.97;4990028;28;103209;-57
2023/03/13 06:11:34;;;;;;;2.13;0.93;;;;;;;12.52;80.46;97865.09;4995289;28;102811;-58
2023/03/13 06:14:06;;;;;;;1.27;0.70;;;;;;;12.45;80.74;97867.47;4992610;28;102676;-58
2023/03/13 06:16:42;;;;;;;1.00;0.50;;;;;;;12.47;81.08;97877.91;4989883;28;105089;-58
2023/03/13 06:19:19;;;;;;;0.70;0.50;;;;;;;12.60;80.34;97868.69;4995524;28;103176;-58
2023/03/13 06:21:48;;;;;;;1.70;0.97;;;;;;;12.53;80.40;97878.19;4996327;28;102772;-58
2023/03/13 06:24:16;;;;;;;1.30;0.63;;;;;;;12.53;80.63;97872.91;4996484;28;104015;-58
2023/03/13 06:26:44;;;;;;;0.93;0.50;;;;;;;12.62;80.38;97866.75;4992805;28;103335;-58
2023/03/13 06:29:13;;;;;;;1.13;0.53;;;;;;;12.64;80.23;97863.94;4995680;28;103226;-58
2023/03/13 06:31:41;;;;;;;1.13;0.70;;;;;;;12.71;80.16;97870.34;4976739;28;102712;-59
2023/03/13 06:34:11;;;;;;;0.77;0.57;;;;;;;12.71;80.21;97857.09;4994158;28;102763;-58
2023/03/13 06:36:39;;;;;;;1.73;0.60;;;;;;;12.81;80.11;97855.22;4992607;28;103256;-58
2023/03/13 06:39:08;;;;;;;0.97;0.53;;;;;;;12.87;79.93;97857.31;4996987;28;103267;-58
2023/03/13 06:41:36;;;;;;;1.03;0.40;;;;;;;12.94;79.82;97854.94;4997320;28;103104;-58
2023/03/13 06:44:04;;;;;;;0.77;0.60;;;;;;;12.94;79.66;97850.44;4992520;28;102710;-58
2023/03/13 06:46:34;;;;;;;0.80;0.50;;;;;;;12.93;79.78;97858.53;4995104;28;104055;-58
2023/03/13 06:49:04;;;;;;;0.60;0.50;;;;;;;12.95;79.84;97868.03;4995588;28;102949;-59
2023/03/13 06:51:33;;;;;;;3.30;0.70;;;;;;;12.94;80.07;97871.63;4998426;28;102669;-58
2023/03/13 06:54:01;;;;;;;0.90;0.47;;;;;;;12.98;79.86;97872.19;4992632;28;103826;-59
2023/03/13 06:56:29;;;;;;;1.67;0.50;;;;;;;13.01;79.71;97877.22;4993285;28;103344;-59
2023/03/13 06:58:57;;;;;;;4.33;0.50;;;;;;;12.99;79.95;97874.72;4995215;28;103183;-58
2023/03/13 07:01:27;;;;;;;1.43;0.70;;;;;;;13.01;80.09;97869.25;4999060;28;102781;-59
2023/03/13 07:03:56;;;;;;;0.80;0.47;;;;;;;12.96;80.30;97875.00;5000012;28;103090;-58
2023/03/13 07:06:25;;;;;;;0.50;0.50;;;;;;;12.96;80.30;97872.34;4995913;28;103312;-58
2023/03/13 07:08:53;;;;;;;0.87;0.57;;;;;;;13.02;80.22;97879.72;4995622;28;103270;-58
2023/03/13 07:11:21;;;;;;;0.60;0.50;;;;;;;13.07;80.19;97887.25;5000179;28;102655;-58
2023/03/13 07:13:49;;;;;;;0.57;0.47;;;;;;;13.07;80.47;97877.50;4999844;28;102652;-58
2023/03/13 07:16:17;;;;;;;0.50;0.40;;;;;;;13.06;80.10;97881.09;4998414;28;103732;-59
2023/03/13 07:18:45;;;;;;;0.50;0.40;;;;;;;13.15;80.09;97884.72;4999864;28;103246;-59
2023/03/13 07:21:15;;;;;;;1.17;0.60;;;;;;;13.18;79.97;97881.78;4998487;28;102699;-60
2023/03/13 07:23:43;;;;;;;0.47;0.40;;;;;;;13.17;79.94;97882.75;4995992;28;103887;-58
2023/03/13 07:26:13;;;;;;;0.30;0.30;;;;;;;13.22;79.79;97891.94;4995153;28;103822;-58
2023/03/13 07:28:41;;;;;;;0.50;0.40;;;;;;;13.18;80.07;97890.56;4995445;28;103188;-58
2023/03/13 07:31:12;;;;;;;0.60;0.40;;;;;;;13.16;80.02;97876.63;4998725;28;102632;-58
2023/03/13 07:33:40;;;;;;;2.73;0.70;;;;;;;13.31;79.94;97871.66;4998416;28;102696;-59
2023/03/13 07:36:09;;;;;;;0.93;0.60;;;;;;;13.25;79.94;97875.72;4996102;28;103294;-58
2023/03/13 07:38:42;;;;;;;0.97;0.60;;;;;;;13.35;79.82;97867.75;4997898;28;103207;-58
2023/03/13 07:41:12;;;;;;;0.43;0.40;;;;;;;13.28;80.05;97862.19;4997407;28;103089;-59
2023/03/13 07:43:40;;;;;;;0.50;0.50;;;;;;;13.29;80.18;97850.59;4999968;28;102628;-58
2023/03/13 07:46:10;;;;;;;0.87;0.80;;;;;;;13.40;79.83;97849.56;4992708;28;104367;-59
2023/03/13 07:48:40;;;;;;;0.47;0.40;;;;;;;13.36;80.09;97850.84;4995418;28;104122;-59
2023/03/13 07:51:12;;;;;;;0.50;0.50;;;;;;;13.42;79.59;97844.91;4997287;28;102689;-58
2023/03/13 07:53:41;;;;;;;3.10;0.70;;;;;;;13.49;79.75;97853.97;4996509;28;103841;-58
2023/03/13 07:56:12;;;;;;;1.93;0.50;;;;;;;13.61;79.08;97841.34;4998012;28;104058;-59
2023/03/13 07:58:41;;;;;;;0.50;0.50;;;;;;;13.70;79.28;97838.59;4997613;28;104219;-58
2023/03/13 08:01:10;;;;;;;1.60;0.53;;;;;;;13.82;78.86;97833.91;4994419;28;102801;-59
2023/03/13 08:03:38;;;;;;;0.57;0.40;;;;;;;13.79;79.06;97831.53;4994930;28;103952;-58
2023/03/13 08:06:09;;;;;;;0.80;0.80;;;;;;;13.96;78.48;97838.66;4997254;28;103370;-59
2023/03/13 08:08:38;;;;;;;1.43;0.50;;;;;;;13.87;78.27;97827.13;4997628;28;103221;-59
2023/03/13 08:11:09;;;;;;;1.07;0.60;;;;;;;14.01;78.19;97835.56;4988116;28;103218;-58
2023/03/13 08:13:38;;;;;;;1.63;0.63;;;;;;;14.01;78.10;97809.84;4994193;28;102789;-59
2023/03/13 08:16:08;;;;;;;0.73;0.50;;;;;;;14.17;77.56;97815.28;4998177;28;103254;-59
2023/03/13 08:18:38;;;;;;;1.00;0.90;;;;;;;14.37;76.82;97802.69;4990766;28;103251;-58
2023/03/13 08:21:08;;;;;;;0.80;0.40;;;;;;;14.61;76.28;97792.19;4998130;28;102719;-58
2023/03/13 08:23:37;;;;;;;1.80;0.70;;;;;;;14.44;75.79;97785.94;4995291;28;102663;-59
2023/03/13 08:26:09;;;;;;;1.60;0.60;;;;;;;14.55;75.55;97791.97;4997444;28;103903;-58
2023/03/13 08:28:37;;;;;;;0.50;0.40;;;;;;;14.79;74.77;97800.09;4994768;28;103094;-59
2023/03/13 08:31:10;;;;;;;0.83;0.50;;;;;;;14.85;74.63;97789.66;4995829;28;103853;-59
2023/03/13 08:33:39;;;;;;;1.53;0.60;;;;;;;14.73;74.38;97790.94;4998502;28;102989;-59
2023/03/13 08:36:16;;;;;;;0.50;0.50;;;;;;;14.89;74.07;97803.47;4995672;28;103300;-58
2023/03/13 08:38:45;;;;;;;0.90;0.70;;;;;;;15.00;74.20;97797.88;4992412;28;104235;-58
2023/03/13 08:41:16;;;;;;;1.23;0.60;;;;;;;15.00;73.70;97792.56;4998453;28;102707;-59
2023/03/13 08:43:45;;;;;;;0.70;0.50;;;;;;;15.10;73.28;97799.41;4995502;28;102670;-59
2023/03/13 08:46:13;;;;;;;0.90;0.60;;;;;;;14.88;73.70;97802.63;4997129;28;103311;-59
2023/03/13 08:48:41;;;;;;;1.03;0.60;;;;;;;14.93;73.84;97807.50;4996564;28;103708;-59
2023/03/13 08:51:11;;;;;;;1.07;0.60;;;;;;;15.19;72.88;97804.75;4997179;28;102778;-58
2023/03/13 08:53:40;;;;;;;2.10;0.50;;;;;;;15.02;73.15;97801.19;4995762;28;103160;-58
2023/03/13 08:56:10;;;;;;;1.07;0.57;;;;;;;15.10;72.67;97803.91;4995222;28;103341;-58
2023/03/13 08:58:40;;;;;;;1.57;0.70;;;;;;;15.12;72.82;97806.41;4996039;28;103465;-58
2023/03/13 09:01:10;;;;;;;1.30;0.60;;;;;;;15.15;71.83;97806.06;4995333;28;102907;-58
2023/03/13 09:03:38;;;;;;;2.03;0.67;;;;;;;15.11;71.77;97800.25;4999494;28;102992;-58
2023/03/13 09:06:07;;;;;;;3.37;0.70;;;;;;;15.17;72.02;97798.75;4995077;28;103231;-58
2023/03/13 09:08:36;;;;;;;2.13;0.80;;;;;;;15.33;71.25;97804.97;4996303;28;103256;-58
2023/03/13 09:11:05;;;;;;;2.00;0.80;;;;;;;15.37;71.04;97795.69;4997985;28;102989;-58
2023/03/13 09:13:37;;;;;;;1.00;0.90;;;;;;;15.25;71.04;97804.09;4993726;28;103632;-58
2023/03/13 09:16:09;;;;;;;2.00;0.80;;;;;;;15.46;70.60;97801.84;4995835;28;104087;-58
2023/03/13 09:18:37;;;;;;;0.93;0.80;;;;;;;15.71;70.25;97797.44;4997194;28;103281;-61
2023/03/13 09:21:07;;;;;;;2.20;0.60;;;;;;;15.48;69.86;97792.75;4998013;28;102644;-61
2023/03/13 09:23:35;;;;;;;1.03;0.73;;;;;;;15.60;70.09;97791.44;4996194;28;104146;-60
2023/03/13 09:26:04;;;;;;;1.43;0.80;;;;;;;15.72;69.63;97791.13;4987044;28;103314;-60
2023/03/13 09:28:33;;;;;;;0.80;0.53;;;;;;;15.92;68.82;97792.44;4998266;28;103348;-60
2023/03/13 09:31:09;;;;;;;2.15;0.60;;;;;;;16.08;68.66;97792.47;4995288;28;102732;-60
2023/03/13 09:33:37;;;;;;;0.75;0.50;;;;;;;16.26;67.97;97798.44;4998826;28;102648;-59
2023/03/13 09:36:06;;;;;;;1.63;0.80;;;;;;;16.23;68.24;97798.78;4997282;28;103747;-61
2023/03/13 09:38:34;;;;;;;1.30;0.80;;;;;;;16.05;68.53;97806.13;4988463;28;103216;-61
2023/03/13 09:41:12;;;;;;;1.02;0.80;;;;;;;16.13;68.31;97800.78;4994078;28;102773;-58
2023/03/13 09:43:44;;;;;;;3.17;0.90;;;;;;;16.40;68.36;97811.09;4992894;28;103152;-58
2023/03/13 09:46:18;;;;;;;1.20;0.95;;;;;;;16.24;67.76;97816.44;4997484;28;103287;-58
2023/03/13 09:48:50;;;;;;;1.42;0.80;;;;;;;16.28;67.45;97801.75;4997818;28;103267;-58
2023/03/13 09:51:23;;;;;;;1.55;0.80;;;;;;;16.34;67.04;97794.94;4992712;28;102725;-58
2023/03/13 09:53:56;;;;;;;1.02;0.80;;;;;;;16.80;66.33;97791.56;4998437;28;103089;-58
2023/03/13 09:56:29;;;;;;;1.33;0.80;;;;;;;16.98;64.92;97784.13;4990492;28;103413;-58
2023/03/13 09:59:01;;;;;;;2.85;0.90;;;;;;;17.57;64.34;97771.22;4996256;28;103212;-59
2023/03/13 10:01:33;;;;;;;1.83;0.90;;;;;;;17.70;63.79;97766.09;4994090;28;102869;-58
2023/03/13 10:04:08;;;;;;;1.05;0.95;;;;;;;17.30;63.24;97756.47;4992223;28;102934;-59
2023/03/13 10:06:42;;;;;;;0.70;0.70;;;;;;;17.68;62.77;97758.28;4990748;28;103325;-58
2023/03/13 10:09:20;;;;;;;1.20;0.80;;;;;;;17.47;62.74;97757.22;4996812;28;104343;-59
2023/03/13 10:12:10;;;;;;;1.75;0.82;;;;;;;16.90;63.56;97754.03;4994225;28;103132;-59
2023/03/13 10:14:45;;;;;;;3.80;1.20;;;;;;;16.68;63.50;97753.75;4996582;28;103982;-59
2023/03/13 10:17:41;;;;;;;1.65;0.80;;;;;;;17.14;63.30;97746.72;4992518;28;103320;-58
2023/03/13 10:20:48;;;;;;;1.33;0.90;;;;;;;17.90;61.14;97729.91;4999657;28;103088;-58
2023/03/13 10:23:30;;;;;;;2.08;1.00;;;;;;;18.30;60.18;97726.03;4987214;28;102718;-58
2023/03/13 10:25:59;;;;;;;1.20;1.10;;;;;;;18.38;58.73;97728.59;4882688;28;104021;-59
2023/03/13 10:28:27;;;;;;;3.20;1.20;;;;;;;18.38;59.06;97725.94;4995108;28;103315;-59
2023/03/13 10:31:05;;;;;;;1.80;1.00;;;;;;;18.32;59.25;97734.69;4978457;28;103212;-58
2023/03/13 10:33:37;;;;;;;2.85;1.00;;;;;;;18.48;58.12;97738.06;4993981;28;102837;-58
2023/03/13 10:36:08;;;;;;;2.35;0.90;;;;;;;18.10;58.86;97727.56;4993258;28;102764;-59
2023/03/13 10:38:49;;;;;;;3.90;1.25;;;;;;;18.29;59.39;97719.00;4997332;28;104205;-59
2023/03/13 10:41:35;;;;;;;3.15;0.82;;;;;;;18.52;58.77;97717.13;4994435;28;103138;-59
2023/03/13 10:44:15;;;;;;;2.33;1.23;;;;;;;18.38;58.49;97716.06;4991795;28;102764;-59
2023/03/13 10:46:44;;;;;;;2.13;1.00;;;;;;;18.15;58.43;97711.78;4995816;28;103907;-59
2023/03/13 10:49:16;;;;;;;2.45;0.93;;;;;;;18.01;58.87;97713.44;4995163;28;103295;-59
2023/03/13 10:51:48;;;;;;;2.05;1.13;;;;;;;18.04;59.63;97720.25;4995458;27;103259;-59
2023/03/13 10:54:22;;;;;;;3.30;1.33;;;;;;;18.14;59.08;97715.47;4997817;28;102863;-59
2023/03/13 10:56:52;;;;;;;1.90;1.10;;;;;;;18.19;59.19;97707.75;4998203;28;102653;-59
2023/03/13 10:59:23;;;;;;;1.42;1.10;;;;;;;18.34;58.63;97703.25;4996751;28;103263;-59
2023/03/13 11:01:52;;;;;;;2.45;1.23;;;;;;;18.52;57.91;97706.44;4995289;28;103186;-59
2023/03/13 11:04:30;;;;;;;3.05;1.33;;;;;;;18.87;57.68;97700.31;4996275;28;102715;-58
2023/03/13 11:07:02;;;;;;;2.33;1.00;;;;;;;18.57;57.58;97706.69;4997139;28;103014;-59
2023/03/13 11:09:32;;;;;;;1.25;0.88;;;;;;;18.67;57.71;97704.56;4995178;28;103356;-59
2023/03/13 11:12:05;;;;;;;2.95;1.10;;;;;;;18.72;57.03;97702.19;4980441;28;103220;-59
2023/03/13 11:14:34;;;;;;;3.67;1.30;;;;;;;18.32;57.88;97694.56;4998016;28;102774;-59
2023/03/13 11:17:11;;;;;;;3.80;1.20;;;;;;;18.23;57.95;97699.19;4990975;28;103255;-59
2023/03/13 11:19:58;;;;;;;1.85;1.25;;;;;;;18.38;57.64;97688.50;4997022;28;103680;-59
2023/03/13 11:22:41;;;;;;;3.35;1.15;;;;;;;18.62;57.65;97682.91;4996407;28;103224;-59
2023/03/13 11:25:20;;;;;;;1.73;1.10;;;;;;;18.46;57.37;97672.38;4997002;28;102964;-59
2023/03/13 11:28:09;;;;;;;1.17;1.08;;;;;;;18.39;57.54;97663.41;4993859;28;102692;-59
2023/03/13 11:30:49;;;;;;;1.38;0.93;;;;;;;18.61;56.83;97662.50;4986316;28;104073;-59
2023/03/13 11:33:28;;;;;;;3.30;1.17;;;;;;;18.61;55.83;97651.00;4997128;28;103188;-59
2023/03/13 11:36:08;;;;;;;1.05;1.00;;;;;;;18.69;56.34;97646.38;4969714;28;102841;-58
2023/03/13 11:38:40;;;;;;;1.02;0.90;;;;;;;19.34;54.50;97632.88;4995135;28;102879;-60
2023/03/13 11:41:21;;;;;;;1.30;1.20;;;;;;;19.56;53.45;97623.84;4993969;28;103428;-59
2023/03/13 11:44:03;;;;;;;2.90;1.08;;;;;;;19.35;54.58;97617.66;4993437;28;103187;-59
2023/03/13 11:46:45;;;;;;;1.75;1.17;;;;;;;19.51;54.66;97607.53;4993544;28;102699;-59
2023/03/13 11:49:29;;;;;;;2.75;1.25;;;;;;;19.73;53.59;97600.31;4997172;28;102751;-59
2023/03/13 11:52:12;;;;;;;2.65;1.25;;;;;;;20.37;52.58;97592.91;4996675;28;103286;-59
2023/03/13 11:55:09;;;;;;;2.10;1.08;;;;;;;19.91;52.78;97587.22;4998664;28;103354;-59